Time;durP1;ratioP1;P1;durP2;ratioP2;P2;SDS_P1;SDS_P2;PMS_P1;PMS_P2;Temp;Humidity;BMP_temperature;BMP_pressure;BME280_temperature;BME280_humidity;BME280_pressure;Samples;Min_cycle;Max_cycle;Signal;HPM_P1;HPM_P2
2022/01/21 00:01:18;;;;;;;;;;;;;;;-1.78;100.00;100646.31;5597932;31;34593;-83
2022/01/21 00:04:27;;;;;;;;;;;;;;;-1.86;99.74;100644.00;5597303;31;34663;-83
2022/01/21 00:07:32;;;;;;;;;;;;;;;-1.86;100.00;100644.00;5596087;31;34557;-83
2022/01/21 00:10:37;;;;;;;;;;;;;;;-1.79;98.50;100639.44;5597531;31;34505;-83
2022/01/21 00:13:40;;;;;;;;;;;;;;;-1.61;97.65;100637.13;5597149;31;34583;-83
2022/01/21 00:16:45;;;;;;;;;;;;;;;-1.46;96.12;100640.91;5597765;31;34861;-83
2022/01/21 00:33:16;;;;;;;;;;;;;;;-1.38;95.95;100664.81;5601785;31;35659;-83
2022/01/21 00:36:22;;;;;;;;;;;;;;;-1.39;95.57;100655.34;5599269;31;34681;-83
2022/01/21 00:39:30;;;;;;;;;;;;;;;-1.33;95.23;100652.53;5598302;31;34715;-83
2022/01/21 00:45:40;;;;;;;;;;;;;;;-1.15;92.65;100644.94;5598591;31;34342;-83
2022/01/21 00:48:43;;;;;;;;;;;;;;;-1.13;94.00;100664.78;5598934;31;34641;-84
2022/01/21 00:51:46;;;;;;;;;;;;;;;-1.14;94.90;100662.22;5598672;31;34645;-83
2022/01/21 00:54:49;;;;;;;;;;;;;;;-1.26;98.60;100640.19;5598209;31;34187;-83
2022/01/21 00:57:51;;;;;;;;;;;;;;;-1.35;99.78;100637.94;5597770;31;34076;-83
2022/01/21 01:00:54;;;;;;;;;;;;;;;-1.45;100.00;100635.66;5598418;31;33985;-83
2022/01/21 01:03:59;;;;;;;;;;;;;;;-1.56;100.00;100638.66;5598750;31;34575;-83
2022/01/21 01:07:05;;;;;;;;;;;;;;;-1.63;100.00;100642.34;5598256;31;34959;-83
2022/01/21 01:10:11;;;;;;;;;;;;;;;-1.62;100.00;100662.19;5596897;31;35326;-83
2022/01/21 01:20:08;;;;;;;;;;;;;;;-1.50;98.01;100662.66;5600168;31;35401;-84
2022/01/21 01:30:06;;;;;;;;;;;;;;;-1.57;97.81;100646.47;5600565;31;35089;-83
2022/01/21 01:33:16;;;;;;;;;;;;;;;-1.52;98.15;100654.13;5574266;31;849135;-83
2022/01/21 01:36:20;;;;;;;;;;;;;;;-1.61;98.53;100647.50;5601040;31;33922;-82
2022/01/21 01:52:30;;;;;;;;;;;;;;;-1.66;97.02;100645.06;5600554;31;34422;-82
2022/01/21 01:55:33;;;;;;;;;;;;;;;-1.59;96.60;100649.12;5600913;31;34143;-83
2022/01/21 01:58:37;;;;;;;;;;;;;;;-1.59;96.34;100656.91;5600156;31;34924;-83
2022/01/21 02:01:41;;;;;;;;;;;;;;;-1.66;96.65;100676.19;5600632;31;34825;-83
2022/01/21 02:04:45;;;;;;;;;;;;;;;-1.66;96.99;100670.16;5601824;31;35482;-83
2022/01/21 02:07:50;;;;;;;;;;;;;;;-1.64;97.27;100673.53;5602171;31;34576;-84
2022/01/21 02:10:56;;;;;;;;;;;;;;;-1.62;97.34;100688.16;5605429;31;35607;-85
2022/01/21 02:14:07;;;;;;;;;;;;;;;-1.62;97.41;100682.94;5600087;31;34085;-84
2022/01/21 02:17:19;;;;;;;;;;;;;;;-1.63;97.20;100689.03;5601721;31;35046;-83
2022/01/21 02:23:47;;;;;;;;;;;;;;;-1.63;97.74;100676.06;5599882;31;34582;-83
2022/01/21 02:26:51;;;;;;;;;;;;;;;-1.65;97.99;100670.13;5599875;31;34859;-83
2022/01/21 02:30:00;;;;;;;;;;;;;;;-1.66;99.20;100670.16;5598366;31;33941;-83
2022/01/21 02:33:04;;;;;;;;;;;;;;;-1.76;99.02;100659.25;5600607;31;35121;-83
2022/01/21 02:36:07;;;;;;;;;;;;;;;-1.75;98.98;100660.97;5599904;31;35805;-83
2022/01/21 02:39:10;;;;;;;;;;;;;;;-1.82;99.21;100660.31;5599703;31;35043;-83
2022/01/21 02:42:12;;;;;;;;;;;;;;;-1.91;99.75;100656.28;5585826;31;35044;-83
2022/01/21 02:45:17;;;;;;;;;;;;;;;-1.91;99.55;100656.28;5599842;31;35248;-83
2022/01/21 02:48:22;;;;;;;;;;;;;;;-1.95;99.91;100633.13;5600131;31;34613;-83
2022/01/21 02:51:25;;;;;;;;;;;;;;;-2.04;99.72;100623.91;5598967;31;35509;-83
2022/01/21 02:54:32;;;;;;;;;;;;;;;-2.07;100.00;100630.03;5598841;31;34389;-83
2022/01/21 02:57:40;;;;;;;;;;;;;;;-2.04;99.73;100655.88;5599896;31;34329;-83
2022/01/21 03:00:43;;;;;;;;;;;;;;;-1.99;99.73;100663.50;5600448;31;34855;-83
2022/01/21 03:03:47;;;;;;;;;;;;;;;-1.97;99.26;100669.44;5598778;31;34845;-84
2022/01/21 03:06:52;;;;;;;;;;;;;;;-1.94;98.91;100664.16;5599629;31;34058;-83
2022/01/21 03:09:55;;;;;;;;;;;;;;;-1.92;98.60;100662.38;5599410;31;35095;-83
2022/01/21 03:12:58;;;;;;;;;;;;;;;-1.91;98.43;100676.19;5599239;31;34282;-84
2022/01/21 03:16:02;;;;;;;;;;;;;;;-1.90;98.64;100678.75;5598768;31;36656;-82
2022/01/21 03:19:06;;;;;;;;;;;;;;;-1.90;98.60;100683.06;5600110;31;34833;-83
2022/01/21 03:22:13;;;;;;;;;;;;;;;-1.75;97.10;100676.53;5598679;31;34994;-83
2022/01/21 03:25:17;;;;;;;;;;;;;;;-1.64;95.60;100669.22;5599197;31;34722;-85
2022/01/21 03:28:25;;;;;;;;;;;;;;;-1.56;93.04;100667.19;5599758;31;36302;-83
2022/01/21 03:31:31;;;;;;;;;;;;;;;-1.53;92.66;100666.22;5599191;31;35356;-83
2022/01/21 03:34:35;;;;;;;;;;;;;;;-1.49;92.24;100662.62;5599808;31;36086;-83
2022/01/21 03:37:37;;;;;;;;;;;;;;;-1.59;91.82;100641.34;5602339;31;35090;-83
2022/01/21 03:40:40;;;;;;;;;;;;;;;-1.66;91.44;100642.47;5600564;31;35109;-83
2022/01/21 03:43:47;;;;;;;;;;;;;;;-1.78;92.12;100637.72;5604267;31;35709;-82
2022/01/21 03:46:50;;;;;;;;;;;;;;;-1.82;91.35;100630.94;5602540;31;35474;-83
2022/01/21 03:49:56;;;;;;;;;;;;;;;-1.84;90.02;100643.97;5599816;31;35025;-82
2022/01/21 03:53:03;;;;;;;;;;;;;;;-1.83;90.13;100639.59;5599119;31;34449;-83
2022/01/21 03:56:06;;;;;;;;;;;;;;;-1.83;90.60;100668.13;5598503;31;34569;-83
2022/01/21 03:59:11;;;;;;;;;;;;;;;-1.84;90.93;100666.44;5598179;31;34541;-83
2022/01/21 04:02:14;;;;;;;;;;;;;;;-1.90;92.13;100662.31;5600354;31;32870;-84
2022/01/21 04:05:18;;;;;;;;;;;;;;;-2.02;92.60;100669.59;5599694;31;34522;-83
2022/01/21 04:08:23;;;;;;;;;;;;;;;-2.08;93.00;100684.53;5597846;31;35006;-83
2022/01/21 04:11:28;;;;;;;;;;;;;;;-2.17;93.83;100696.91;5599282;31;34414;-83
2022/01/21 04:14:32;;;;;;;;;;;;;;;-2.19;93.70;100708.22;5599023;31;34905;-83
2022/01/21 04:17:36;;;;;;;;;;;;;;;-2.23;92.11;100717.84;5599055;31;35575;-83
2022/01/21 04:20:39;;;;;;;;;;;;;;;-2.25;92.29;100718.81;5599634;31;33168;-83
2022/01/21 04:23:42;;;;;;;;;;;;;;;-2.35;92.36;100713.88;5598091;31;34716;-85
2022/01/21 04:26:45;;;;;;;;;;;;;;;-2.33;92.02;100706.06;5598731;31;35023;-83
2022/01/21 04:29:48;;;;;;;;;;;;;;;-2.38;91.79;100703.62;5599524;31;35190;-83
2022/01/21 04:32:51;;;;;;;;;;;;;;;-2.41;91.59;100697.69;5598918;31;35072;-83
2022/01/21 04:35:54;;;;;;;;;;;;;;;-2.42;91.37;100711.56;5599063;31;36308;-83
2022/01/21 04:39:02;;;;;;;;;;;;;;;-2.46;91.53;100720.31;5598412;31;34352;-84
2022/01/21 04:48:48;;;;;;;;;;;;;;;-2.61;92.32;100721.63;5599575;31;34745;-83
2022/01/21 04:52:02;;;;;;;;;;;;;;;-2.58;92.59;100727.56;5601733;31;35511;-84
2022/01/21 04:55:07;;;;;;;;;;;;;;;-2.64;92.68;100743.28;5600462;31;34244;-84
2022/01/21 04:58:10;;;;;;;;;;;;;;;-2.71;92.45;100741.78;5601633;31;35577;-83
2022/01/21 05:01:16;;;;;;;;;;;;;;;-2.72;92.48;100740.94;5599746;31;35472;-84
2022/01/21 05:04:20;;;;;;;;;;;;;;;-2.78;92.60;100746.28;5600831;31;34599;-84
2022/01/21 05:07:26;;;;;;;;;;;;;;;-2.75;93.02;100734.97;5599695;31;35133;-84
2022/01/21 05:10:31;;;;;;;;;;;;;;;-2.81;93.37;100736.88;5599364;31;34609;-84
2022/01/21 05:13:42;;;;;;;;;;;;;;;-2.76;92.00;100743.66;5600286;31;34364;-84
2022/01/21 05:16:47;;;;;;;;;;;;;;;-2.69;91.69;100734.81;5598963;31;35165;-84
2022/01/21 05:19:50;;;;;;;;;;;;;;;-2.69;91.70;100747.75;5600724;31;35669;-83
2022/01/21 05:22:56;;;;;;;;;;;;;;;-2.66;91.39;100740.75;5601666;31;34623;-83
2022/01/21 05:26:07;;;;;;;;;;;;;;;-2.60;90.92;100734.53;5599525;31;34378;-83
2022/01/21 05:29:11;;;;;;;;;;;;;;;-2.62;91.14;100751.03;5598484;31;35512;-83
2022/01/21 05:32:16;;;;;;;;;;;;;;;-2.51;90.14;100749.78;5597809;31;36091;-83
2022/01/21 05:35:26;;;;;;;;;;;;;;;-2.49;89.67;100755.78;5597715;31;34529;-83
2022/01/21 05:38:29;;;;;;;;;;;;;;;-2.51;89.87;100754.97;5599879;31;34372;-84
2022/01/21 05:41:35;;;;;;;;;;;;;;;-2.54;89.74;100756.81;5598961;31;34511;-84
2022/01/21 05:47:41;;;;;;;;;;;;;;;-2.66;89.98;100773.59;5599808;31;34773;-85
2022/01/21 05:50:45;;;;;;;;;;;;;;;-2.71;90.00;100778.03;5599634;31;34429;-84
2022/01/21 05:53:47;;;;;;;;;;;;;;;-2.71;90.57;100780.63;5598993;31;34305;-84
2022/01/21 05:56:55;;;;;;;;;;;;;;;-2.77;90.27;100793.75;5599164;31;34202;-83
2022/01/21 05:59:58;;;;;;;;;;;;;;;-2.81;90.28;100799.03;5597798;31;35155;-84
2022/01/21 06:03:02;;;;;;;;;;;;;;;-2.88;91.15;100797.50;5600456;31;35147;-84
2022/01/21 06:06:10;;;;;;;;;;;;;;;-2.89;90.65;100816.53;5595621;31;35583;-84
2022/01/21 06:09:13;;;;;;;;;;;;;;;-2.90;90.67;100814.81;5584479;31;33505;-83
2022/01/21 06:12:16;;;;;;;;;;;;;;;-2.94;90.88;100813.19;5589636;31;34298;-84
2022/01/21 06:15:19;;;;;;;;;;;;;;;-2.99;91.27;100821.09;5581619;31;33896;-84
2022/01/21 06:18:22;;;;;;;;;;;;;;;-3.05;91.30;100830.75;5582831;32;34594;-85
2022/01/21 06:21:24;;;;;;;;;;;;;;;-3.11;91.38;100842.12;5591070;31;34222;-84
2022/01/21 06:24:27;;;;;;;;;;;;;;;-3.15;91.48;100846.53;5581457;31;35358;-85
2022/01/21 06:27:32;;;;;;;;;;;;;;;-3.12;91.52;100846.47;5581896;31;35051;-84
2022/01/21 06:30:35;;;;;;;;;;;;;;;-3.15;90.68;100867.25;5581388;32;34445;-84
2022/01/21 06:33:38;;;;;;;;;;;;;;;-3.22;91.04;100870.03;5581826;31;34003;-84
2022/01/21 06:36:40;;;;;;;;;;;;;;;-3.21;89.73;100882.94;5582690;32;34467;-85
2022/01/21 06:39:43;;;;;;;;;;;;;;;-3.19;89.40;100875.97;5580497;31;34800;-84
2022/01/21 06:42:46;;;;;;;;;;;;;;;-3.25;90.25;100894.25;5581299;31;33756;-85
2022/01/21 06:45:49;;;;;;;;;;;;;;;-3.18;89.04;100900.12;5594622;31;34446;-83
2022/01/21 06:48:52;;;;;;;;;;;;;;;-3.15;89.37;100908.66;5601439;31;34754;-84
2022/01/21 06:51:57;;;;;;;;;;;;;;;-3.25;90.18;100914.97;5601177;31;34125;-87
2022/01/21 06:55:00;;;;;;;;;;;;;;;-3.24;89.46;100916.66;5604499;31;34450;-84
2022/01/21 06:58:04;;;;;;;;;;;;;;;-3.27;89.59;100925.37;5603380;31;35524;-83
2022/01/21 07:01:09;;;;;;;;;;;;;;;-3.28;89.33;100925.37;5602390;31;34494;-83
2022/01/21 07:04:11;;;;;;;;;;;;;;;-3.26;90.46;100927.03;5601633;31;34350;-85
2022/01/21 07:07:16;;;;;;;;;;;;;;;-3.24;89.70;100929.59;5587660;31;34403;-83
2022/01/21 07:10:19;;;;;;;;;;;;;;;-3.22;89.66;100945.97;5581454;32;34572;-83
2022/01/21 07:13:22;;;;;;;;;;;;;;;-3.24;90.33;100960.66;5581517;32;34289;-84
2022/01/21 07:16:24;;;;;;;;;;;;;;;-3.15;88.86;100973.38;5591682;31;35644;-83
2022/01/21 07:19:30;;;;;;;;;;;;;;;-3.18;89.57;100976.03;5598935;31;34435;-83
2022/01/21 07:22:33;;;;;;;;;;;;;;;-3.17;89.76;100979.50;5602117;31;34571;-85
2022/01/21 07:25:36;;;;;;;;;;;;;;;-3.18;88.99;100976.03;5593733;31;36079;-84
2022/01/21 07:28:39;;;;;;;;;;;;;;;-3.23;89.24;100980.50;5599991;31;34806;-84
2022/01/21 07:31:42;;;;;;;;;;;;;;;-3.20;88.80;100972.63;5600307;31;34410;-86
2022/01/21 07:34:47;;;;;;;;;;;;;;;-3.13;87.66;100958.66;5600966;31;34790;-83
2022/01/21 07:37:54;;;;;;;;;;;;;;;-3.00;87.15;100974.75;5601638;31;34269;-84
2022/01/21 07:40:56;;;;;;;;;;;;;;;-3.02;87.25;100986.03;5597885;31;34039;-83
2022/01/21 07:43:59;;;;;;;;;;;;;;;-3.03;86.91;100994.69;5600380;31;34496;-83
2022/01/21 07:47:02;;;;;;;;;;;;;;;-3.03;86.85;100990.34;5601946;31;34732;-84
2022/01/21 07:50:07;;;;;;;;;;;;;;;-3.05;86.33;100996.44;5600564;31;34794;-84
2022/01/21 07:53:10;;;;;;;;;;;;;;;-2.95;85.82;100987.56;5601593;31;35243;-85
2022/01/21 07:56:14;;;;;;;;;;;;;;;-2.99;87.53;100983.38;5600237;31;34514;-84
2022/01/21 07:59:16;;;;;;;;;;;;;;;-2.96;84.90;100975.50;5600728;31;35493;-84
2022/01/21 08:02:19;;;;;;;;;;;;;;;-2.99;85.03;100986.81;5598220;31;34262;-83
2022/01/21 08:05:30;;;;;;;;;;;;;;;-2.97;85.11;100968.63;5600198;31;35420;-83
2022/01/21 08:08:36;;;;;;;;;;;;;;;-2.95;85.54;100979.81;5599919;31;34153;-83
2022/01/21 08:11:44;;;;;;;;;;;;;;;-2.96;85.75;100991.03;5597968;31;34120;-83
2022/01/21 08:14:46;;;;;;;;;;;;;;;-2.94;86.01;100986.69;5598501;31;35456;-83
2022/01/21 08:17:52;;;;;;;;;;;;;;;-2.97;85.15;100994.53;5598102;31;35050;-83
2022/01/21 08:20:56;;;;;;;;;;;;;;;-2.96;85.51;100983.28;5597701;31;34353;-84
2022/01/21 08:23:58;;;;;;;;;;;;;;;-2.90;86.04;100995.22;5599043;31;34810;-83
2022/01/21 08:27:04;;;;;;;;;;;;;;;-2.86;85.62;100995.09;5597981;31;34456;-83
2022/01/21 08:30:10;;;;;;;;;;;;;;;-2.78;85.56;100988.91;5599308;31;34528;-83
2022/01/21 08:33:13;;;;;;;;;;;;;;;-2.75;84.32;100993.97;5596847;31;34442;-83
2022/01/21 08:36:20;;;;;;;;;;;;;;;-2.65;83.26;100992.87;5599872;31;35005;-84
2022/01/21 08:39:23;;;;;;;;;;;;;;;-2.70;83.51;101013.69;5599714;31;35065;-83
2022/01/21 08:42:26;;;;;;;;;;;;;;;-2.70;81.72;101005.09;5595733;31;35028;-85
2022/01/21 08:45:29;;;;;;;;;;;;;;;-2.66;82.50;101004.13;5579482;31;34336;-83
2022/01/21 08:48:32;;;;;;;;;;;;;;;-2.55;82.24;101003.84;5577643;32;34588;-84
2022/01/21 08:51:47;;;;;;;;;;;;;;;-2.54;80.79;101027.13;5576579;32;35145;-83
2022/01/21 08:54:50;;;;;;;;;;;;;;;-2.41;81.89;101025.06;5577868;32;35046;-87
2022/01/21 08:57:53;;;;;;;;;;;;;;;-2.42;80.78;101038.09;5578244;32;34605;-83
2022/01/21 09:00:56;;;;;;;;;;;;;;;-2.30;79.75;101042.91;5578315;32;34030;-84
2022/01/21 09:03:59;;;;;;;;;;;;;;;-2.15;78.45;101040.81;5577619;31;34889;-83
2022/01/21 09:07:02;;;;;;;;;;;;;;;-1.96;77.42;101052.38;5583024;31;34264;-83
2022/01/21 09:10:14;;;;;;;;;;;;;;;-2.00;77.22;101066.34;5578047;32;34955;-84
2022/01/21 09:13:16;;;;;;;;;;;;;;;-2.04;77.07;101069.91;5579221;32;34584;-84
2022/01/21 09:16:20;;;;;;;;;;;;;;;-2.04;77.32;101065.56;5577785;32;34688;-83
2022/01/21 09:19:23;;;;;;;;;;;;;;;-1.84;77.34;101055.53;5577638;32;34334;-84
2022/01/21 09:22:26;;;;;;;;;;;;;;;-1.81;76.14;101060.63;5576195;32;34452;-84
2022/01/21 09:25:30;;;;;;;;;;;;;;;-1.91;74.78;101068.69;5576224;32;34617;-83
2022/01/21 09:28:33;;;;;;;;;;;;;;;-1.82;72.29;101074.50;5577397;32;34987;-85
2022/01/21 09:31:40;;;;;;;;;;;;;;;-1.82;72.76;101056.34;5580667;31;34354;-83
2022/01/21 09:34:59;;;;;;;;;;;;;;;-1.74;74.05;101059.56;5598703;31;34612;-84
2022/01/21 09:38:02;;;;;;;;;;;;;;;-1.65;72.44;101051.53;5596237;31;34880;-84
2022/01/21 09:41:18;;;;;;;;;;;;;;;-1.68;71.65;101041.22;5598394;31;34502;-83
2022/01/21 09:44:21;;;;;;;;;;;;;;;-1.72;72.03;101060.37;5599841;31;34545;-84
2022/01/21 09:47:25;;;;;;;;;;;;;;;-1.65;72.11;101063.63;5599306;31;34656;-83
2022/01/21 09:50:28;;;;;;;;;;;;;;;-1.57;70.22;101070.31;5600808;31;35467;-85
2022/01/21 09:53:31;;;;;;;;;;;;;;;-1.48;72.35;101068.34;5602286;31;34730;-84
2022/01/21 09:56:37;;;;;;;;;;;;;;;-1.27;70.51;101053.87;5596626;31;35552;-83
2022/01/21 09:59:41;;;;;;;;;;;;;;;-1.18;71.33;101060.53;5600452;31;34294;-83
2022/01/21 10:02:48;;;;;;;;;;;;;;;-1.03;71.19;101054.84;5600546;31;34324;-84
2022/01/21 10:05:54;;;;;;;;;;;;;;;-1.00;70.37;101062.56;5601010;31;35055;-83
2022/01/21 10:09:04;;;;;;;;;;;;;;;-1.00;70.99;101054.78;5601097;31;34397;-84
2022/01/21 10:12:06;;;;;;;;;;;;;;;-1.21;70.76;101040.69;5602346;31;34553;-83
2022/01/21 10:15:13;;;;;;;;;;;;;;;-1.24;72.65;101040.81;5600051;31;34816;-83
2022/01/21 10:18:23;;;;;;;;;;;;;;;-1.06;73.32;101044.56;5602258;31;34276;-84
2022/01/21 10:21:32;;;;;;;;;;;;;;;-1.02;72.84;101035.78;5600520;31;34101;-83
2022/01/21 10:24:49;;;;;;;;;;;;;;;-1.32;72.80;101028.06;5602940;31;35574;-83
2022/01/21 10:27:52;;;;;;;;;;;;;;;-1.45;73.86;101021.53;5603583;31;35417;-85
2022/01/21 10:31:09;;;;;;;;;;;;;;;-1.62;75.42;101028.06;5586628;31;35122;-84
2022/01/21 10:34:12;;;;;;;;;;;;;;;-1.73;77.09;101011.97;5584760;32;34679;-85
2022/01/21 10:37:21;;;;;;;;;;;;;;;-1.78;78.54;101016.44;5584133;32;35256;-84
2022/01/21 10:40:32;;;;;;;;;;;;;;;-1.54;78.01;101027.00;5582204;32;35546;-85
2022/01/21 10:43:35;;;;;;;;;;;;;;;-1.56;78.06;101019.25;5582207;32;34572;-83
2022/01/21 10:46:39;;;;;;;;;;;;;;;-1.59;79.34;101033.16;5580632;32;34953;-84
2022/01/21 10:49:44;;;;;;;;;;;;;;;-1.18;77.79;101042.38;5585102;31;34834;-87
2022/01/21 10:52:51;;;;;;;;;;;;;;;-0.78;75.99;101049.72;5581680;32;33151;-86
2022/01/21 10:55:54;;;;;;;;;;;;;;;-0.78;76.59;101048.88;5581351;32;35790;-85
2022/01/21 10:58:59;;;;;;;;;;;;;;;-0.83;76.83;101053.38;5581272;32;34681;-85
2022/01/21 11:02:02;;;;;;;;;;;;;;;-0.58;75.34;101057.75;5581057;31;34046;-87
2022/01/21 11:05:13;;;;;;;;;;;;;;;-0.70;75.30;101077.22;5579987;32;34645;-83
2022/01/21 11:08:18;;;;;;;;;;;;;;;-0.56;73.95;101068.97;5580553;32;34367;-84
2022/01/21 11:11:23;;;;;;;;;;;;;;;-0.48;74.54;101070.41;5581628;32;34368;-85
2022/01/21 11:14:25;;;;;;;;;;;;;;;-0.42;73.98;101055.50;5580014;32;34493;-85
2022/01/21 11:17:28;;;;;;;;;;;;;;;-0.34;74.50;101056.94;5584168;32;34689;-85
2022/01/21 11:20:37;;;;;;;;;;;;;;;-0.25;74.20;101049.72;5581971;32;34300;-85
2022/01/21 11:23:41;;;;;;;;;;;;;;;-0.14;73.89;101038.94;5580580;32;33971;-87
2022/01/21 11:26:44;;;;;;;;;;;;;;;0.04;72.66;101022.69;5581654;32;35328;-85
2022/01/21 11:29:47;;;;;;;;;;;;;;;-0.16;72.80;101023.37;5579718;32;35590;-85
2022/01/21 11:32:53;;;;;;;;;;;;;;;-0.12;73.88;101027.59;5579167;32;34480;-83
2022/01/21 11:35:55;;;;;;;;;;;;;;;-0.33;74.08;101014.44;5579046;32;34743;-85
2022/01/21 11:38:58;;;;;;;;;;;;;;;-0.33;73.68;101019.63;5579565;32;34918;-85
2022/01/21 11:42:02;;;;;;;;;;;;;;;-0.60;74.67;101007.56;5579681;32;33769;-83
2022/01/21 11:45:29;;;;;;;;;;;;;;;-0.57;76.32;100994.47;5586319;31;34174;-82
2022/01/21 11:48:51;;;;;;;;;;;;;;;-0.75;76.33;100995.94;5596159;31;32579;-85
2022/01/21 11:52:13;;;;;;;;;;;;;;;-0.49;76.58;100966.47;5585262;31;34186;-86
2022/01/21 11:55:37;;;;;;;;;;;;;;;-0.47;74.47;100980.25;5581463;32;34501;-86
2022/01/21 11:59:00;;;;;;;;;;;;;;;-0.28;75.48;100971.84;5579889;32;34339;-85
2022/01/21 12:02:15;;;;;;;;;;;;;;;-0.60;74.12;100958.19;5580619;32;34593;-84
2022/01/21 12:05:26;;;;;;;;;;;;;;;-0.77;74.03;100944.03;5581493;32;34527;-83
2022/01/21 12:08:44;;;;;;;;;;;;;;;-0.66;75.22;100933.25;5579537;32;34682;-84
2022/01/21 12:11:55;;;;;;;;;;;;;;;-0.52;75.83;100927.59;5580390;32;34356;-85
2022/01/21 12:15:04;;;;;;;;;;;;;;;-0.37;73.89;100941.81;5580235;32;36839;-85
2022/01/21 12:21:38;;;;;;;;;;;;;;;-0.28;73.21;100943.22;5574772;32;34458;-83
2022/01/21 12:24:48;;;;;;;;;;;;;;;0.02;73.22;100940.38;5579105;32;34459;-84
2022/01/21 12:28:10;;;;;;;;;;;;;;;0.08;71.26;100929.75;5580676;32;36247;-85
2022/01/21 12:31:15;;;;;;;;;;;;;;;-0.13;72.20;100940.03;5593139;31;34444;-83
2022/01/21 12:34:20;;;;;;;;;;;;;;;-0.38;73.63;100948.75;5597919;31;34110;-84
2022/01/21 12:37:26;;;;;;;;;;;;;;;-0.02;72.05;100945.69;5598543;31;34130;-83
2022/01/21 12:40:33;;;;;;;;;;;;;;;0.13;72.11;100943.44;5599380;31;35269;-85
2022/01/21 12:43:39;;;;;;;;;;;;;;;0.03;72.95;100957.69;5599499;31;34423;-85
2022/01/21 12:46:44;;;;;;;;;;;;;;;0.10;72.34;100959.16;5601302;31;35458;-85
2022/01/21 12:49:52;;;;;;;;;;;;;;;0.19;70.76;100935.37;5598891;31;34477;-85
2022/01/21 12:56:08;;;;;;;;;;;;;;;0.06;71.43;100958.44;5598275;31;34080;-83
2022/01/21 12:59:24;;;;;;;;;;;;;;;0.08;69.36;100958.34;5584580;31;33932;-83
2022/01/21 13:02:28;;;;;;;;;;;;;;;0.19;68.97;100956.19;5576597;32;34754;-83
2022/01/21 13:05:38;;;;;;;;;;;;;;;0.26;69.58;100949.88;5578334;32;34968;-85
2022/01/21 13:09:09;;;;;;;;;;;;;;;0.27;69.84;100955.91;5579058;32;34713;-82
2022/01/21 13:12:13;;;;;;;;;;;;;;;0.06;67.56;100967.97;5578323;32;34567;-83
2022/01/21 13:15:19;;;;;;;;;;;;;;;-0.14;67.50;100959.16;5578627;32;33880;-85
2022/01/21 13:18:23;;;;;;;;;;;;;;;-0.26;68.54;100959.59;5580087;32;34393;-83
2022/01/21 13:21:29;;;;;;;;;;;;;;;-0.11;67.71;100959.06;5579758;32;35194;-82
2022/01/21 13:24:36;;;;;;;;;;;;;;;-0.03;66.00;100957.00;5578794;32;35492;-86
2022/01/21 13:27:44;;;;;;;;;;;;;;;0.01;65.71;100943.91;5577336;32;34016;-85
2022/01/21 13:30:46;;;;;;;;;;;;;;;0.08;65.94;100955.75;5576958;32;34580;-82
2022/01/21 13:33:51;;;;;;;;;;;;;;;0.08;65.19;100956.63;5578453;32;35623;-84
2022/01/21 13:36:55;;;;;;;;;;;;;;;-0.13;65.99;100942.66;5578465;32;35000;-83
2022/01/21 13:40:00;;;;;;;;;;;;;;;-0.19;66.46;100954.12;5581150;31;34330;-83
2022/01/21 13:43:25;;;;;;;;;;;;;;;-0.18;65.40;100936.78;5597380;31;34544;-83
2022/01/21 13:46:30;;;;;;;;;;;;;;;-0.17;65.71;100946.28;5586563;31;34569;-85
2022/01/21 13:49:33;;;;;;;;;;;;;;;-0.21;65.23;100932.53;5596566;31;34496;-85
2022/01/21 13:52:40;;;;;;;;;;;;;;;-0.24;66.11;100939.59;5596557;31;35526;-85
2022/01/21 13:55:45;;;;;;;;;;;;;;;-0.22;66.73;100937.78;5599013;31;34906;-85
2022/01/21 13:58:50;;;;;;;;;;;;;;;-0.24;67.10;100926.59;5597193;31;34593;-86
2022/01/21 14:02:06;;;;;;;;;;;;;;;-0.28;66.86;100927.63;5597200;31;35384;-83
2022/01/21 14:05:09;;;;;;;;;;;;;;;-0.38;67.90;100922.72;5599003;31;34650;-84
2022/01/21 14:08:25;;;;;;;;;;;;;;;-0.40;68.04;100926.31;5588344;31;34297;-84
2022/01/21 14:11:40;;;;;;;;;;;;;;;-0.39;67.92;100915.84;5582710;32;35388;-84
2022/01/21 14:14:43;;;;;;;;;;;;;;;-0.48;65.35;100918.78;5578295;32;34440;-83
2022/01/21 14:17:46;;;;;;;;;;;;;;;-0.41;64.63;100917.66;5577931;32;34256;-83
2022/01/21 14:20:49;;;;;;;;;;;;;;;-0.51;66.19;100911.09;5577771;32;34526;-83
2022/01/21 14:23:52;;;;;;;;;;;;;;;-0.53;65.53;100918.09;5578037;32;34797;-85
2022/01/21 14:26:55;;;;;;;;;;;;;;;-0.57;65.12;100906.12;5580651;32;34357;-83
2022/01/21 14:30:05;;;;;;;;;;;;;;;-0.64;66.04;100905.47;5582334;32;35013;-84
2022/01/21 14:33:09;;;;;;;;;;;;;;;-0.71;65.42;100925.63;5584042;32;35210;-86
2022/01/21 14:36:14;;;;;;;;;;;;;;;-0.78;66.31;100924.16;5580820;32;34857;-86
2022/01/21 14:39:20;;;;;;;;;;;;;;;-0.80;66.63;100932.03;5582615;32;34113;-84
2022/01/21 14:42:25;;;;;;;;;;;;;;;-0.82;66.56;100940.75;5582866;32;34955;-84
2022/01/21 14:45:28;;;;;;;;;;;;;;;-0.80;65.50;100941.53;5582025;32;35449;-84
2022/01/21 14:48:33;;;;;;;;;;;;;;;-0.74;64.93;100933.56;5581121;32;35134;-85
2022/01/21 14:52:00;;;;;;;;;;;;;;;-0.79;65.26;100948.44;5580950;32;34249;-85
2022/01/21 14:55:08;;;;;;;;;;;;;;;-0.87;66.70;100951.28;5581660;32;35459;-83
2022/01/21 14:58:27;;;;;;;;;;;;;;;-0.90;64.41;100960.94;5582693;31;35129;-83
2022/01/21 15:01:30;;;;;;;;;;;;;;;-0.89;63.42;100957.44;5581236;31;34466;-85
2022/01/21 15:04:51;;;;;;;;;;;;;;;-1.01;63.04;100956.97;5600523;31;34371;-84
2022/01/21 15:07:54;;;;;;;;;;;;;;;-0.98;63.07;100962.06;5600382;31;35538;-83
2022/01/21 15:11:19;;;;;;;;;;;;;;;-1.07;62.71;100969.28;5600859;31;34676;-83
2022/01/21 15:14:26;;;;;;;;;;;;;;;-1.11;62.35;100965.97;5601076;31;34621;-85
2022/01/21 15:17:29;;;;;;;;;;;;;;;-1.19;63.05;100970.56;5588659;31;33887;-83
2022/01/21 15:20:33;;;;;;;;;;;;;;;-1.28;63.47;100976.88;5581511;32;34568;-83
2022/01/21 15:23:36;;;;;;;;;;;;;;;-1.19;62.64;100970.56;5580023;32;34648;-83
2022/01/21 15:26:43;;;;;;;;;;;;;;;-1.22;62.77;100981.03;5580800;32;34462;-83
2022/01/21 15:29:46;;;;;;;;;;;;;;;-1.32;63.72;100986.53;5578963;31;35499;-83
2022/01/21 15:32:49;;;;;;;;;;;;;;;-1.43;63.99;100983.41;5583482;31;34640;-83
2022/01/21 15:35:51;;;;;;;;;;;;;;;-1.41;64.75;100986.81;5579359;32;34481;-83
2022/01/21 15:38:54;;;;;;;;;;;;;;;-1.53;64.92;100987.19;5582053;32;35825;-85
2022/01/21 15:42:00;;;;;;;;;;;;;;;-1.51;64.98;100980.19;5582923;32;35537;-85
2022/01/21 15:45:03;;;;;;;;;;;;;;;-1.47;64.02;100972.28;5579964;32;34437;-85
2022/01/21 15:48:09;;;;;;;;;;;;;;;-1.54;64.55;100975.09;5580855;32;35079;-85
2022/01/21 15:51:12;;;;;;;;;;;;;;;-1.53;64.50;100972.44;5579418;32;35181;-85
2022/01/21 15:54:15;;;;;;;;;;;;;;;-1.65;65.06;100962.44;5579279;32;35444;-83
2022/01/21 15:57:17;;;;;;;;;;;;;;;-1.64;64.83;100969.34;5581098;32;35599;-83
2022/01/21 16:00:20;;;;;;;;;;;;;;;-1.65;64.42;100965.91;5580156;32;34702;-83
2022/01/21 16:03:32;;;;;;;;;;;;;;;-1.75;65.01;100959.28;5580840;31;35543;-83
2022/01/21 16:06:34;;;;;;;;;;;;;;;-1.69;64.25;100961.69;5594245;31;34994;-83
2022/01/21 16:09:37;;;;;;;;;;;;;;;-1.73;64.15;100965.25;5600291;31;34798;-83
2022/01/21 16:12:40;;;;;;;;;;;;;;;-1.66;63.13;100961.59;5599470;31;34600;-83
2022/01/21 16:15:45;;;;;;;;;;;;;;;-1.77;63.36;100961.09;5599852;31;35001;-83
2022/01/21 16:18:52;;;;;;;;;;;;;;;-1.79;63.39;100960.28;5600285;31;34654;-83
2022/01/21 16:21:55;;;;;;;;;;;;;;;-1.77;62.94;100963.69;5599897;31;34465;-83
2022/01/21 16:24:58;;;;;;;;;;;;;;;-1.80;62.84;100966.34;5599325;31;34436;-84
2022/01/21 16:28:00;;;;;;;;;;;;;;;-1.80;62.35;100971.53;5600032;31;34614;-84
2022/01/21 16:31:04;;;;;;;;;;;;;;;-1.84;62.62;100977.69;5600810;31;34954;-84
2022/01/21 16:34:06;;;;;;;;;;;;;;;-1.95;63.11;100976.28;5599353;31;35458;-84
2022/01/21 16:37:09;;;;;;;;;;;;;;;-1.99;63.02;100973.81;5600449;31;34468;-84
2022/01/21 16:40:14;;;;;;;;;;;;;;;-1.98;62.98;100986.75;5599203;31;33818;-83
2022/01/21 16:43:19;;;;;;;;;;;;;;;-1.95;62.97;100981.47;5599073;31;35022;-84
2022/01/21 16:46:23;;;;;;;;;;;;;;;-1.83;61.31;100982.00;5600864;31;34293;-84
2022/01/21 16:49:28;;;;;;;;;;;;;;;-1.82;61.67;100988.88;5599448;31;34353;-83
2022/01/21 16:52:32;;;;;;;;;;;;;;;-1.76;61.01;100986.13;5600562;31;34514;-84
2022/01/21 16:55:35;;;;;;;;;;;;;;;-1.86;61.86;100976.00;5601516;31;35657;-83
2022/01/21 16:58:38;;;;;;;;;;;;;;;-1.78;61.12;100982.72;5602147;31;34556;-84